Gilbert, Arizona
Current Conditions -  °F | °C
As of 5:47 AM on Sunday 23 Nov 2014 (Local Time) from KCHD Reporting Station
Clear Clear  
Wind Chill:   Ceiling: Unl
Heat Index:   Visibility: 15mi
Dew Point: -1°   Wind: 0mph
Humidity: 57%   Direction: NA
Pressure: 29.97"   Gusts: NA
Location:  33.33°N, 111.78°W
Report Text: KCHD 231247Z 00000KT 15SM SKC 07/M01 A2997
Loading
Personal Weather Stations






























Interactive Weather Map New forecast layout! Learn more

10-Day Weather Forecast

Advertisements
Track Severe Weather on mobile